sensor_id;sensor_type;location;lat;lon;timestamp;P1;durP1;ratioP1;P2;durP2;ratioP2
13147;SDS011;6639;50.956;4.242;2024-02-14T00:00:25;4.90;;;3.35;;
13147;SDS011;6639;50.956;4.242;2024-02-14T00:02:53;4.28;;;3.90;;
13147;SDS011;6639;50.956;4.242;2024-02-14T00:05:20;6.28;;;4.10;;
13147;SDS011;6639;50.956;4.242;2024-02-14T00:07:48;4.32;;;3.92;;
13147;SDS011;6639;50.956;4.242;2024-02-14T00:10:15;4.93;;;4.53;;
13147;SDS011;6639;50.956;4.242;2024-02-14T00:12:42;4.60;;;3.90;;
13147;SDS011;6639;50.956;4.242;2024-02-14T00:15:09;4.68;;;4.18;;
13147;SDS011;6639;50.956;4.242;2024-02-14T00:17:38;4.35;;;4.03;;
13147;SDS011;6639;50.956;4.242;2024-02-14T00:20:05;2.80;;;2.58;;
13147;SDS011;6639;50.956;4.242;2024-02-14T00:22:35;4.72;;;3.78;;
13147;SDS011;6639;50.956;4.242;2024-02-14T00:25:02;4.32;;;3.95;;
13147;SDS011;6639;50.956;4.242;2024-02-14T00:27:29;5.75;;;3.90;;
13147;SDS011;6639;50.956;4.242;2024-02-14T00:29:56;5.10;;;3.85;;
13147;SDS011;6639;50.956;4.242;2024-02-14T00:32:24;4.75;;;3.83;;
13147;SDS011;6639;50.956;4.242;2024-02-14T00:34:52;6.03;;;3.58;;
13147;SDS011;6639;50.956;4.242;2024-02-14T00:37:20;3.80;;;3.50;;
13147;SDS011;6639;50.956;4.242;2024-02-14T00:39:47;4.90;;;3.78;;
13147;SDS011;6639;50.956;4.242;2024-02-14T00:42:15;5.30;;;3.88;;
13147;SDS011;6639;50.956;4.242;2024-02-14T00:44:42;4.20;;;3.90;;
13147;SDS011;6639;50.956;4.242;2024-02-14T00:47:09;5.05;;;3.80;;
13147;SDS011;6639;50.956;4.242;2024-02-14T00:49:36;7.30;;;4.25;;
13147;SDS011;6639;50.956;4.242;2024-02-14T00:52:05;4.28;;;3.92;;
13147;SDS011;6639;50.956;4.242;2024-02-14T00:54:34;4.05;;;3.20;;
13147;SDS011;6639;50.956;4.242;2024-02-14T00:57:14;4.97;;;3.72;;
13147;SDS011;6639;50.956;4.242;2024-02-14T00:59:40;3.40;;;3.10;;
13147;SDS011;6639;50.956;4.242;2024-02-14T01:02:07;4.10;;;3.75;;
13147;SDS011;6639;50.956;4.242;2024-02-14T01:04:34;4.90;;;3.70;;
13147;SDS011;6639;50.956;4.242;2024-02-14T01:07:02;4.70;;;4.05;;
13147;SDS011;6639;50.956;4.242;2024-02-14T01:09:30;5.28;;;3.95;;
13147;SDS011;6639;50.956;4.242;2024-02-14T01:11:58;4.90;;;4.40;;
13147;SDS011;6639;50.956;4.242;2024-02-14T01:14:25;4.40;;;4.00;;
13147;SDS011;6639;50.956;4.242;2024-02-14T01:16:52;5.15;;;4.30;;
13147;SDS011;6639;50.956;4.242;2024-02-14T01:19:19;5.38;;;4.88;;
13147;SDS011;6639;50.956;4.242;2024-02-14T01:21:48;5.22;;;4.72;;
13147;SDS011;6639;50.956;4.242;2024-02-14T01:24:15;4.03;;;3.72;;
13147;SDS011;6639;50.956;4.242;2024-02-14T01:26:44;7.25;;;4.28;;
13147;SDS011;6639;50.956;4.242;2024-02-14T01:29:11;7.18;;;4.53;;
13147;SDS011;6639;50.956;4.242;2024-02-14T01:31:37;5.60;;;4.43;;
13147;SDS011;6639;50.956;4.242;2024-02-14T01:34:04;5.20;;;4.45;;
13147;SDS011;6639;50.956;4.242;2024-02-14T01:36:31;9.13;;;5.15;;
13147;SDS011;6639;50.956;4.242;2024-02-14T01:38:58;5.38;;;4.88;;
13147;SDS011;6639;50.956;4.242;2024-02-14T01:41:25;4.53;;;4.18;;
13147;SDS011;6639;50.956;4.242;2024-02-14T01:43:53;4.78;;;4.38;;
13147;SDS011;6639;50.956;4.242;2024-02-14T01:46:20;8.38;;;5.20;;
13147;SDS011;6639;50.956;4.242;2024-02-14T01:48:47;6.20;;;4.85;;
13147;SDS011;6639;50.956;4.242;2024-02-14T01:51:15;5.10;;;4.47;;
13147;SDS011;6639;50.956;4.242;2024-02-14T01:53:45;5.85;;;5.43;;
13147;SDS011;6639;50.956;4.242;2024-02-14T01:56:12;5.90;;;4.68;;
13147;SDS011;6639;50.956;4.242;2024-02-14T01:58:41;5.72;;;5.22;;
13147;SDS011;6639;50.956;4.242;2024-02-14T02:01:09;4.65;;;4.25;;
13147;SDS011;6639;50.956;4.242;2024-02-14T02:03:37;5.78;;;4.85;;
13147;SDS011;6639;50.956;4.242;2024-02-14T02:06:04;5.72;;;4.78;;
13147;SDS011;6639;50.956;4.242;2024-02-14T02:08:32;8.05;;;5.40;;
13147;SDS011;6639;50.956;4.242;2024-02-14T02:10:59;5.57;;;4.97;;
13147;SDS011;6639;50.956;4.242;2024-02-14T02:13:26;5.55;;;5.00;;
13147;SDS011;6639;50.956;4.242;2024-02-14T02:15:53;5.97;;;5.40;;
13147;SDS011;6639;50.956;4.242;2024-02-14T02:18:22;6.35;;;5.05;;
13147;SDS011;6639;50.956;4.242;2024-02-14T02:20:50;5.97;;;5.45;;
13147;SDS011;6639;50.956;4.242;2024-02-14T02:23:19;5.43;;;4.93;;
13147;SDS011;6639;50.956;4.242;2024-02-14T02:25:46;6.35;;;5.55;;
13147;SDS011;6639;50.956;4.242;2024-02-14T02:28:13;8.10;;;5.45;;
13147;SDS011;6639;50.956;4.242;2024-02-14T02:30:40;6.03;;;5.00;;
13147;SDS011;6639;50.956;4.242;2024-02-14T02:33:07;5.75;;;4.88;;
13147;SDS011;6639;50.956;4.242;2024-02-14T02:35:34;5.47;;;4.97;;
13147;SDS011;6639;50.956;4.242;2024-02-14T02:38:01;6.88;;;5.88;;
13147;SDS011;6639;50.956;4.242;2024-02-14T02:40:30;5.97;;;5.35;;
13147;SDS011;6639;50.956;4.242;2024-02-14T02:42:56;5.50;;;5.03;;
13147;SDS011;6639;50.956;4.242;2024-02-14T02:45:25;6.20;;;5.10;;
13147;SDS011;6639;50.956;4.242;2024-02-14T02:47:53;6.40;;;5.28;;
13147;SDS011;6639;50.956;4.242;2024-02-14T02:50:21;8.02;;;5.93;;
13147;SDS011;6639;50.956;4.242;2024-02-14T02:52:48;6.60;;;5.22;;
13147;SDS011;6639;50.956;4.242;2024-02-14T02:55:15;6.15;;;5.55;;
13147;SDS011;6639;50.956;4.242;2024-02-14T02:57:43;6.43;;;5.70;;
13147;SDS011;6639;50.956;4.242;2024-02-14T03:00:11;6.30;;;5.57;;
13147;SDS011;6639;50.956;4.242;2024-02-14T03:02:39;6.63;;;5.70;;
13147;SDS011;6639;50.956;4.242;2024-02-14T03:05:09;6.65;;;5.97;;
13147;SDS011;6639;50.956;4.242;2024-02-14T03:07:42;7.22;;;5.65;;
13147;SDS011;6639;50.956;4.242;2024-02-14T03:10:10;6.38;;;5.35;;
13147;SDS011;6639;50.956;4.242;2024-02-14T03:12:38;6.40;;;5.78;;
13147;SDS011;6639;50.956;4.242;2024-02-14T03:15:07;6.32;;;5.60;;
13147;SDS011;6639;50.956;4.242;2024-02-14T03:17:35;6.35;;;5.13;;
13147;SDS011;6639;50.956;4.242;2024-02-14T03:20:03;6.47;;;5.88;;
13147;SDS011;6639;50.956;4.242;2024-02-14T03:22:35;7.20;;;6.40;;
13147;SDS011;6639;50.956;4.242;2024-02-14T03:25:02;6.60;;;5.97;;
13147;SDS011;6639;50.956;4.242;2024-02-14T03:27:29;7.20;;;5.75;;
13147;SDS011;6639;50.956;4.242;2024-02-14T03:29:57;8.35;;;5.82;;
13147;SDS011;6639;50.956;4.242;2024-02-14T03:32:29;7.95;;;6.22;;
13147;SDS011;6639;50.956;4.242;2024-02-14T03:34:56;6.72;;;5.95;;
13147;SDS011;6639;50.956;4.242;2024-02-14T03:37:23;7.88;;;6.20;;
13147;SDS011;6639;50.956;4.242;2024-02-14T03:39:50;5.65;;;5.13;;
13147;SDS011;6639;50.956;4.242;2024-02-14T03:42:17;7.32;;;6.25;;
13147;SDS011;6639;50.956;4.242;2024-02-14T03:44:44;7.25;;;6.50;;
13147;SDS011;6639;50.956;4.242;2024-02-14T03:47:12;8.63;;;6.68;;
13147;SDS011;6639;50.956;4.242;2024-02-14T03:49:40;7.45;;;6.25;;
13147;SDS011;6639;50.956;4.242;2024-02-14T03:52:07;7.25;;;5.88;;
13147;SDS011;6639;50.956;4.242;2024-02-14T03:54:35;9.65;;;5.57;;
13147;SDS011;6639;50.956;4.242;2024-02-14T03:57:02;9.05;;;6.10;;
13147;SDS011;6639;50.956;4.242;2024-02-14T03:59:31;5.97;;;5.47;;
13147;SDS011;6639;50.956;4.242;2024-02-14T04:02:01;8.52;;;6.15;;
13147;SDS011;6639;50.956;4.242;2024-02-14T04:04:28;7.75;;;5.57;;
13147;SDS011;6639;50.956;4.242;2024-02-14T04:06:57;6.07;;;5.47;;
13147;SDS011;6639;50.956;4.242;2024-02-14T04:09:26;6.22;;;5.50;;
13147;SDS011;6639;50.956;4.242;2024-02-14T04:11:53;6.03;;;5.53;;
13147;SDS011;6639;50.956;4.242;2024-02-14T04:14:20;8.18;;;6.35;;
13147;SDS011;6639;50.956;4.242;2024-02-14T04:16:47;7.53;;;6.63;;
13147;SDS011;6639;50.956;4.242;2024-02-14T04:19:14;7.22;;;5.97;;
13147;SDS011;6639;50.956;4.242;2024-02-14T04:21:42;7.18;;;6.57;;
13147;SDS011;6639;50.956;4.242;2024-02-14T04:24:10;8.13;;;6.38;;
13147;SDS011;6639;50.956;4.242;2024-02-14T04:26:37;8.73;;;7.00;;
13147;SDS011;6639;50.956;4.242;2024-02-14T04:29:04;7.07;;;5.97;;
13147;SDS011;6639;50.956;4.242;2024-02-14T04:31:31;7.72;;;6.35;;
13147;SDS011;6639;50.956;4.242;2024-02-14T04:33:58;6.75;;;6.18;;
13147;SDS011;6639;50.956;4.242;2024-02-14T04:36:25;8.65;;;6.85;;
13147;SDS011;6639;50.956;4.242;2024-02-14T04:38:54;7.00;;;6.35;;
13147;SDS011;6639;50.956;4.242;2024-02-14T04:41:24;8.32;;;6.82;;
13147;SDS011;6639;50.956;4.242;2024-02-14T04:43:51;7.78;;;6.40;;
13147;SDS011;6639;50.956;4.242;2024-02-14T04:46:18;8.82;;;6.97;;
13147;SDS011;6639;50.956;4.242;2024-02-14T04:48:47;7.95;;;6.15;;
13147;SDS011;6639;50.956;4.242;2024-02-14T04:51:14;7.80;;;6.00;;
13147;SDS011;6639;50.956;4.242;2024-02-14T04:53:41;6.90;;;6.00;;
13147;SDS011;6639;50.956;4.242;2024-02-14T04:56:08;8.73;;;6.30;;
13147;SDS011;6639;50.956;4.242;2024-02-14T04:58:36;8.38;;;6.47;;
13147;SDS011;6639;50.956;4.242;2024-02-14T05:01:03;8.65;;;6.18;;
13147;SDS011;6639;50.956;4.242;2024-02-14T05:03:30;7.05;;;6.32;;
13147;SDS011;6639;50.956;4.242;2024-02-14T05:05:57;9.60;;;6.28;;
13147;SDS011;6639;50.956;4.242;2024-02-14T05:08:27;8.35;;;6.75;;
13147;SDS011;6639;50.956;4.242;2024-02-14T05:10:54;7.55;;;5.95;;
13147;SDS011;6639;50.956;4.242;2024-02-14T05:13:21;8.70;;;5.70;;
13147;SDS011;6639;50.956;4.242;2024-02-14T05:15:50;8.32;;;7.05;;
13147;SDS011;6639;50.956;4.242;2024-02-14T05:18:17;9.05;;;6.68;;
13147;SDS011;6639;50.956;4.242;2024-02-14T05:20:44;7.68;;;6.95;;
13147;SDS011;6639;50.956;4.242;2024-02-14T05:23:11;8.18;;;6.93;;
13147;SDS011;6639;50.956;4.242;2024-02-14T05:25:38;8.38;;;7.03;;
13147;SDS011;6639;50.956;4.242;2024-02-14T05:28:05;7.22;;;6.60;;
13147;SDS011;6639;50.956;4.242;2024-02-14T05:30:32;7.80;;;7.00;;
13147;SDS011;6639;50.956;4.242;2024-02-14T05:33:02;7.32;;;6.68;;
13147;SDS011;6639;50.956;4.242;2024-02-14T05:35:30;7.75;;;6.07;;
13147;SDS011;6639;50.956;4.242;2024-02-14T05:37:56;7.82;;;6.57;;
13147;SDS011;6639;50.956;4.242;2024-02-14T05:40:23;9.18;;;7.05;;
13147;SDS011;6639;50.956;4.242;2024-02-14T05:42:50;13.80;;;8.10;;
13147;SDS011;6639;50.956;4.242;2024-02-14T05:45:17;7.15;;;6.55;;
13147;SDS011;6639;50.956;4.242;2024-02-14T05:47:44;10.00;;;6.55;;
13147;SDS011;6639;50.956;4.242;2024-02-14T05:50:13;10.85;;;6.80;;
13147;SDS011;6639;50.956;4.242;2024-02-14T05:52:39;7.65;;;6.85;;
13147;SDS011;6639;50.956;4.242;2024-02-14T05:55:07;10.60;;;6.20;;
13147;SDS011;6639;50.956;4.242;2024-02-14T05:57:34;6.25;;;5.65;;
13147;SDS011;6639;50.956;4.242;2024-02-14T06:00:01;13.00;;;6.70;;
13147;SDS011;6639;50.956;4.242;2024-02-14T06:02:29;7.63;;;6.65;;
13147;SDS011;6639;50.956;4.242;2024-02-14T06:04:56;8.75;;;6.32;;
13147;SDS011;6639;50.956;4.242;2024-02-14T06:07:24;6.30;;;5.70;;
13147;SDS011;6639;50.956;4.242;2024-02-14T06:09:51;8.13;;;6.55;;
13147;SDS011;6639;50.956;4.242;2024-02-14T06:12:18;8.52;;;6.70;;
13147;SDS011;6639;50.956;4.242;2024-02-14T06:14:47;7.05;;;6.18;;
13147;SDS011;6639;50.956;4.242;2024-02-14T06:17:16;8.48;;;5.72;;
13147;SDS011;6639;50.956;4.242;2024-02-14T06:19:43;6.82;;;5.93;;
13147;SDS011;6639;50.956;4.242;2024-02-14T06:22:11;8.95;;;6.28;;
13147;SDS011;6639;50.956;4.242;2024-02-14T06:24:39;6.25;;;5.65;;
13147;SDS011;6639;50.956;4.242;2024-02-14T06:27:06;7.18;;;5.97;;
13147;SDS011;6639;50.956;4.242;2024-02-14T06:29:33;6.97;;;5.70;;
13147;SDS011;6639;50.956;4.242;2024-02-14T06:32:00;6.90;;;5.70;;
13147;SDS011;6639;50.956;4.242;2024-02-14T06:34:27;8.27;;;6.05;;
13147;SDS011;6639;50.956;4.242;2024-02-14T06:36:54;7.60;;;5.95;;
13147;SDS011;6639;50.956;4.242;2024-02-14T06:39:21;8.32;;;5.68;;
13147;SDS011;6639;50.956;4.242;2024-02-14T06:41:49;5.93;;;5.38;;
13147;SDS011;6639;50.956;4.242;2024-02-14T06:44:16;6.68;;;5.15;;
13147;SDS011;6639;50.956;4.242;2024-02-14T06:46:43;6.57;;;5.70;;
13147;SDS011;6639;50.956;4.242;2024-02-14T06:49:10;7.78;;;5.63;;
13147;SDS011;6639;50.956;4.242;2024-02-14T06:51:37;7.47;;;6.07;;
13147;SDS011;6639;50.956;4.242;2024-02-14T06:54:04;6.93;;;6.10;;
13147;SDS011;6639;50.956;4.242;2024-02-14T06:56:31;6.18;;;5.57;;
13147;SDS011;6639;50.956;4.242;2024-02-14T06:58:59;10.25;;;6.18;;
13147;SDS011;6639;50.956;4.242;2024-02-14T07:01:28;6.53;;;5.25;;
13147;SDS011;6639;50.956;4.242;2024-02-14T07:03:55;7.57;;;6.57;;
13147;SDS011;6639;50.956;4.242;2024-02-14T07:06:22;6.03;;;5.35;;
13147;SDS011;6639;50.956;4.242;2024-02-14T07:08:49;8.45;;;6.20;;
13147;SDS011;6639;50.956;4.242;2024-02-14T07:11:16;8.50;;;6.28;;
13147;SDS011;6639;50.956;4.242;2024-02-14T07:13:43;8.27;;;6.18;;
13147;SDS011;6639;50.956;4.242;2024-02-14T07:16:18;11.70;;;6.07;;
13147;SDS011;6639;50.956;4.242;2024-02-14T07:18:45;8.52;;;6.55;;
13147;SDS011;6639;50.956;4.242;2024-02-14T07:21:12;8.20;;;6.75;;
13147;SDS011;6639;50.956;4.242;2024-02-14T07:23:39;7.75;;;6.10;;
13147;SDS011;6639;50.956;4.242;2024-02-14T07:26:06;6.43;;;5.85;;
13147;SDS011;6639;50.956;4.242;2024-02-14T07:28:33;6.32;;;5.60;;
13147;SDS011;6639;50.956;4.242;2024-02-14T07:30:59;9.90;;;5.47;;
13147;SDS011;6639;50.956;4.242;2024-02-14T07:33:28;6.63;;;5.82;;
13147;SDS011;6639;50.956;4.242;2024-02-14T07:35:55;8.30;;;5.88;;
13147;SDS011;6639;50.956;4.242;2024-02-14T07:38:21;7.10;;;5.55;;
13147;SDS011;6639;50.956;4.242;2024-02-14T07:40:48;7.85;;;5.47;;
13147;SDS011;6639;50.956;4.242;2024-02-14T07:43:15;10.43;;;5.55;;
13147;SDS011;6639;50.956;4.242;2024-02-14T07:45:42;9.20;;;6.13;;
13147;SDS011;6639;50.956;4.242;2024-02-14T07:48:09;9.73;;;5.85;;
13147;SDS011;6639;50.956;4.242;2024-02-14T07:50:37;10.00;;;6.07;;
13147;SDS011;6639;50.956;4.242;2024-02-14T07:53:04;9.23;;;6.10;;
13147;SDS011;6639;50.956;4.242;2024-02-14T07:55:32;7.55;;;5.30;;
13147;SDS011;6639;50.956;4.242;2024-02-14T07:57:59;7.55;;;6.25;;
13147;SDS011;6639;50.956;4.242;2024-02-14T08:00:26;6.07;;;5.43;;
13147;SDS011;6639;50.956;4.242;2024-02-14T08:02:53;7.07;;;5.70;;
13147;SDS011;6639;50.956;4.242;2024-02-14T08:05:20;7.43;;;6.72;;
13147;SDS011;6639;50.956;4.242;2024-02-14T08:07:48;8.38;;;6.05;;
13147;SDS011;6639;50.956;4.242;2024-02-14T08:10:15;6.75;;;6.00;;
13147;SDS011;6639;50.956;4.242;2024-02-14T08:12:42;11.00;;;6.55;;
13147;SDS011;6639;50.956;4.242;2024-02-14T08:15:09;7.13;;;6.03;;
13147;SDS011;6639;50.956;4.242;2024-02-14T08:17:36;7.40;;;5.95;;
13147;SDS011;6639;50.956;4.242;2024-02-14T08:20:03;7.65;;;6.30;;
13147;SDS011;6639;50.956;4.242;2024-02-14T08:22:30;9.10;;;6.70;;
13147;SDS011;6639;50.956;4.242;2024-02-14T08:24:59;8.13;;;6.20;;
13147;SDS011;6639;50.956;4.242;2024-02-14T08:27:26;8.32;;;6.82;;
13147;SDS011;6639;50.956;4.242;2024-02-14T08:29:53;7.22;;;6.00;;
13147;SDS011;6639;50.956;4.242;2024-02-14T08:32:20;7.65;;;5.97;;
13147;SDS011;6639;50.956;4.242;2024-02-14T08:34:47;8.88;;;6.95;;
13147;SDS011;6639;50.956;4.242;2024-02-14T08:37:16;9.40;;;6.47;;
13147;SDS011;6639;50.956;4.242;2024-02-14T08:39:43;9.75;;;6.15;;
13147;SDS011;6639;50.956;4.242;2024-02-14T08:42:11;9.77;;;6.80;;
13147;SDS011;6639;50.956;4.242;2024-02-14T08:44:38;8.05;;;5.95;;
13147;SDS011;6639;50.956;4.242;2024-02-14T08:47:08;6.97;;;6.28;;
13147;SDS011;6639;50.956;4.242;2024-02-14T08:49:35;7.15;;;6.45;;
13147;SDS011;6639;50.956;4.242;2024-02-14T08:52:02;8.32;;;6.18;;
13147;SDS011;6639;50.956;4.242;2024-02-14T08:54:31;9.02;;;6.70;;
13147;SDS011;6639;50.956;4.242;2024-02-14T08:56:58;6.82;;;5.72;;
13147;SDS011;6639;50.956;4.242;2024-02-14T08:59:27;7.18;;;6.07;;
13147;SDS011;6639;50.956;4.242;2024-02-14T09:01:54;9.55;;;6.40;;
13147;SDS011;6639;50.956;4.242;2024-02-14T09:04:21;9.57;;;6.25;;
13147;SDS011;6639;50.956;4.242;2024-02-14T09:06:48;6.82;;;6.15;;
13147;SDS011;6639;50.956;4.242;2024-02-14T09:09:14;8.05;;;5.82;;
13147;SDS011;6639;50.956;4.242;2024-02-14T09:11:41;11.05;;;6.10;;
13147;SDS011;6639;50.956;4.242;2024-02-14T09:14:08;6.10;;;5.45;;
13147;SDS011;6639;50.956;4.242;2024-02-14T09:16:37;8.07;;;5.82;;
13147;SDS011;6639;50.956;4.242;2024-02-14T09:19:04;8.32;;;5.78;;
13147;SDS011;6639;50.956;4.242;2024-02-14T09:21:32;6.47;;;5.75;;
13147;SDS011;6639;50.956;4.242;2024-02-14T09:24:01;7.20;;;6.40;;
13147;SDS011;6639;50.956;4.242;2024-02-14T09:26:28;8.43;;;6.43;;
13147;SDS011;6639;50.956;4.242;2024-02-14T09:28:55;6.35;;;5.72;;
13147;SDS011;6639;50.956;4.242;2024-02-14T09:31:22;6.22;;;5.63;;
13147;SDS011;6639;50.956;4.242;2024-02-14T09:33:51;7.43;;;5.32;;
13147;SDS011;6639;50.956;4.242;2024-02-14T09:36:21;5.90;;;5.43;;
13147;SDS011;6639;50.956;4.242;2024-02-14T09:38:48;5.68;;;5.07;;
13147;SDS011;6639;50.956;4.242;2024-02-14T09:41:16;5.65;;;5.15;;
13147;SDS011;6639;50.956;4.242;2024-02-14T09:43:48;5.15;;;4.38;;
13147;SDS011;6639;50.956;4.242;2024-02-14T09:46:16;7.22;;;5.88;;
13147;SDS011;6639;50.956;4.242;2024-02-14T09:48:43;7.13;;;5.15;;
13147;SDS011;6639;50.956;4.242;2024-02-14T09:51:12;5.95;;;5.22;;
13147;SDS011;6639;50.956;4.242;2024-02-14T09:53:40;5.22;;;4.68;;
13147;SDS011;6639;50.956;4.242;2024-02-14T09:56:08;5.38;;;4.88;;
13147;SDS011;6639;50.956;4.242;2024-02-14T09:58:38;6.28;;;5.38;;
13147;SDS011;6639;50.956;4.242;2024-02-14T10:01:06;5.85;;;5.20;;
13147;SDS011;6639;50.956;4.242;2024-02-14T10:03:33;5.90;;;5.30;;
13147;SDS011;6639;50.956;4.242;2024-02-14T10:06:01;5.45;;;5.05;;
13147;SDS011;6639;50.956;4.242;2024-02-14T10:08:30;6.50;;;5.30;;
13147;SDS011;6639;50.956;4.242;2024-02-14T10:10:58;5.68;;;4.93;;
13147;SDS011;6639;50.956;4.242;2024-02-14T10:13:26;6.65;;;5.10;;
13147;SDS011;6639;50.956;4.242;2024-02-14T10:15:54;5.22;;;4.72;;
13147;SDS011;6639;50.956;4.242;2024-02-14T10:18:22;5.00;;;4.60;;
13147;SDS011;6639;50.956;4.242;2024-02-14T10:20:53;5.10;;;4.70;;
13147;SDS011;6639;50.956;4.242;2024-02-14T10:23:21;5.60;;;4.93;;
13147;SDS011;6639;50.956;4.242;2024-02-14T10:25:50;5.40;;;5.00;;
13147;SDS011;6639;50.956;4.242;2024-02-14T10:28:18;6.70;;;4.60;;
13147;SDS011;6639;50.956;4.242;2024-02-14T10:30:47;4.55;;;4.18;;
13147;SDS011;6639;50.956;4.242;2024-02-14T10:33:14;4.38;;;4.07;;
13147;SDS011;6639;50.956;4.242;2024-02-14T10:35:42;4.65;;;4.30;;
13147;SDS011;6639;50.956;4.242;2024-02-14T10:38:10;5.28;;;4.88;;
13147;SDS011;6639;50.956;4.242;2024-02-14T10:40:38;5.20;;;4.70;;
13147;SDS011;6639;50.956;4.242;2024-02-14T10:43:06;5.28;;;4.78;;
13147;SDS011;6639;50.956;4.242;2024-02-14T10:45:34;4.53;;;4.22;;
13147;SDS011;6639;50.956;4.242;2024-02-14T10:48:03;5.63;;;5.20;;
13147;SDS011;6639;50.956;4.242;2024-02-14T10:50:32;4.82;;;4.43;;
13147;SDS011;6639;50.956;4.242;2024-02-14T10:53:04;5.22;;;4.80;;
13147;SDS011;6639;50.956;4.242;2024-02-14T10:55:32;5.13;;;4.53;;
13147;SDS011;6639;50.956;4.242;2024-02-14T10:58:00;4.82;;;4.43;;
13147;SDS011;6639;50.956;4.242;2024-02-14T11:00:29;5.38;;;4.88;;
13147;SDS011;6639;50.956;4.242;2024-02-14T11:02:57;5.00;;;4.60;;
13147;SDS011;6639;50.956;4.242;2024-02-14T11:05:25;4.78;;;4.38;;
13147;SDS011;6639;50.956;4.242;2024-02-14T11:07:52;4.78;;;4.47;;
13147;SDS011;6639;50.956;4.242;2024-02-14T11:10:20;4.22;;;3.88;;
13147;SDS011;6639;50.956;4.242;2024-02-14T11:12:48;4.63;;;4.22;;
13147;SDS011;6639;50.956;4.242;2024-02-14T11:15:16;4.50;;;4.10;;
13147;SDS011;6639;50.956;4.242;2024-02-14T11:17:46;4.80;;;4.40;;
13147;SDS011;6639;50.956;4.242;2024-02-14T11:20:15;4.15;;;3.85;;
13147;SDS011;6639;50.956;4.242;2024-02-14T11:22:53;4.78;;;4.32;;
13147;SDS011;6639;50.956;4.242;2024-02-14T11:25:30;4.57;;;4.28;;
13147;SDS011;6639;50.956;4.242;2024-02-14T11:27:59;4.43;;;4.13;;
13147;SDS011;6639;50.956;4.242;2024-02-14T11:30:30;4.45;;;4.07;;
13147;SDS011;6639;50.956;4.242;2024-02-14T11:33:15;4.70;;;4.30;;
13147;SDS011;6639;50.956;4.242;2024-02-14T11:35:43;5.00;;;4.53;;
13147;SDS011;6639;50.956;4.242;2024-02-14T11:38:11;5.45;;;4.95;;
13147;SDS011;6639;50.956;4.242;2024-02-14T11:40:39;5.10;;;4.70;;
13147;SDS011;6639;50.956;4.242;2024-02-14T11:43:11;6.63;;;5.93;;
13147;SDS011;6639;50.956;4.242;2024-02-14T11:45:39;5.20;;;4.63;;
13147;SDS011;6639;50.956;4.242;2024-02-14T11:48:08;6.13;;;5.63;;
13147;SDS011;6639;50.956;4.242;2024-02-14T11:50:37;5.80;;;5.30;;
13147;SDS011;6639;50.956;4.242;2024-02-14T11:53:05;6.10;;;5.50;;
13147;SDS011;6639;50.956;4.242;2024-02-14T11:55:34;6.65;;;5.53;;
13147;SDS011;6639;50.956;4.242;2024-02-14T11:58:02;6.25;;;5.65;;
13147;SDS011;6639;50.956;4.242;2024-02-14T12:00:32;6.90;;;6.10;;
13147;SDS011;6639;50.956;4.242;2024-02-14T12:03:01;9.13;;;6.35;;
13147;SDS011;6639;50.956;4.242;2024-02-14T12:05:29;6.38;;;5.80;;
13147;SDS011;6639;50.956;4.242;2024-02-14T12:07:57;7.03;;;6.35;;
13147;SDS011;6639;50.956;4.242;2024-02-14T12:10:24;7.45;;;6.43;;
13147;SDS011;6639;50.956;4.242;2024-02-14T12:12:51;5.63;;;5.00;;
13147;SDS011;6639;50.956;4.242;2024-02-14T12:15:18;6.75;;;5.50;;
13147;SDS011;6639;50.956;4.242;2024-02-14T12:17:46;6.60;;;5.88;;
13147;SDS011;6639;50.956;4.242;2024-02-14T12:20:14;5.60;;;5.10;;
13147;SDS011;6639;50.956;4.242;2024-02-14T12:22:41;6.00;;;4.82;;
13147;SDS011;6639;50.956;4.242;2024-02-14T12:25:12;6.45;;;5.55;;
13147;SDS011;6639;50.956;4.242;2024-02-14T12:27:39;5.80;;;5.30;;
13147;SDS011;6639;50.956;4.242;2024-02-14T12:30:14;8.77;;;5.13;;
13147;SDS011;6639;50.956;4.242;2024-02-14T12:32:44;8.00;;;5.35;;
13147;SDS011;6639;50.956;4.242;2024-02-14T12:35:12;5.82;;;5.13;;
13147;SDS011;6639;50.956;4.242;2024-02-14T12:37:39;6.97;;;5.40;;
13147;SDS011;6639;50.956;4.242;2024-02-14T12:40:07;6.25;;;5.55;;
13147;SDS011;6639;50.956;4.242;2024-02-14T12:42:36;6.18;;;5.38;;
13147;SDS011;6639;50.956;4.242;2024-02-14T12:45:03;5.88;;;5.32;;
13147;SDS011;6639;50.956;4.242;2024-02-14T12:47:32;7.20;;;5.57;;
13147;SDS011;6639;50.956;4.242;2024-02-14T12:50:00;5.68;;;5.20;;
13147;SDS011;6639;50.956;4.242;2024-02-14T12:52:27;7.78;;;5.18;;
13147;SDS011;6639;50.956;4.242;2024-02-14T12:54:54;5.68;;;5.00;;
13147;SDS011;6639;50.956;4.242;2024-02-14T12:57:20;5.25;;;4.75;;
13147;SDS011;6639;50.956;4.242;2024-02-14T12:59:49;5.88;;;4.90;;
13147;SDS011;6639;50.956;4.242;2024-02-14T13:02:16;4.78;;;4.30;;
13147;SDS011;6639;50.956;4.242;2024-02-14T13:04:43;7.57;;;5.00;;
13147;SDS011;6639;50.956;4.242;2024-02-14T13:07:10;5.13;;;4.55;;
13147;SDS011;6639;50.956;4.242;2024-02-14T13:09:36;5.00;;;4.03;;
13147;SDS011;6639;50.956;4.242;2024-02-14T13:12:04;6.07;;;4.63;;
13147;SDS011;6639;50.956;4.242;2024-02-14T13:14:34;7.22;;;4.68;;
13147;SDS011;6639;50.956;4.242;2024-02-14T13:17:03;5.28;;;4.05;;
13147;SDS011;6639;50.956;4.242;2024-02-14T13:19:30;5.40;;;3.63;;
13147;SDS011;6639;50.956;4.242;2024-02-14T13:21:58;4.53;;;3.45;;
13147;SDS011;6639;50.956;4.242;2024-02-14T13:24:24;5.22;;;4.18;;
13147;SDS011;6639;50.956;4.242;2024-02-14T13:26:51;3.95;;;3.33;;
13147;SDS011;6639;50.956;4.242;2024-02-14T13:29:18;3.80;;;3.35;;
13147;SDS011;6639;50.956;4.242;2024-02-14T13:31:45;5.30;;;3.70;;
13147;SDS011;6639;50.956;4.242;2024-02-14T13:34:13;5.18;;;3.97;;
13147;SDS011;6639;50.956;4.242;2024-02-14T13:36:40;3.65;;;3.35;;
13147;SDS011;6639;50.956;4.242;2024-02-14T13:39:07;3.90;;;3.60;;
13147;SDS011;6639;50.956;4.242;2024-02-14T13:41:34;3.67;;;3.38;;
13147;SDS011;6639;50.956;4.242;2024-02-14T13:44:02;3.88;;;3.47;;
13147;SDS011;6639;50.956;4.242;2024-02-14T13:46:29;3.80;;;3.40;;
13147;SDS011;6639;50.956;4.242;2024-02-14T13:48:56;5.35;;;3.70;;
13147;SDS011;6639;50.956;4.242;2024-02-14T13:51:25;3.80;;;3.50;;
13147;SDS011;6639;50.956;4.242;2024-02-14T13:53:52;5.85;;;3.70;;
13147;SDS011;6639;50.956;4.242;2024-02-14T13:56:19;4.65;;;4.13;;
13147;SDS011;6639;50.956;4.242;2024-02-14T13:58:47;3.67;;;3.30;;
13147;SDS011;6639;50.956;4.242;2024-02-14T14:01:15;3.95;;;3.55;;
13147;SDS011;6639;50.956;4.242;2024-02-14T14:03:42;3.92;;;2.97;;
13147;SDS011;6639;50.956;4.242;2024-02-14T14:06:09;4.43;;;2.83;;
13147;SDS011;6639;50.956;4.242;2024-02-14T14:08:37;4.93;;;2.90;;
13147;SDS011;6639;50.956;4.242;2024-02-14T14:11:05;5.45;;;3.60;;
13147;SDS011;6639;50.956;4.242;2024-02-14T14:13:33;5.10;;;3.47;;
13147;SDS011;6639;50.956;4.242;2024-02-14T14:16:00;10.35;;;3.78;;
13147;SDS011;6639;50.956;4.242;2024-02-14T14:18:27;3.85;;;3.55;;
13147;SDS011;6639;50.956;4.242;2024-02-14T14:20:54;4.72;;;3.88;;
13147;SDS011;6639;50.956;4.242;2024-02-14T14:23:21;3.72;;;3.15;;
13147;SDS011;6639;50.956;4.242;2024-02-14T14:25:49;4.65;;;3.22;;
13147;SDS011;6639;50.956;4.242;2024-02-14T14:28:16;6.75;;;3.65;;
13147;SDS011;6639;50.956;4.242;2024-02-14T14:30:45;3.83;;;3.28;;
13147;SDS011;6639;50.956;4.242;2024-02-14T14:33:11;4.63;;;3.50;;
13147;SDS011;6639;50.956;4.242;2024-02-14T14:35:38;4.20;;;3.38;;
13147;SDS011;6639;50.956;4.242;2024-02-14T14:38:04;4.68;;;3.63;;
13147;SDS011;6639;50.956;4.242;2024-02-14T14:40:32;3.75;;;3.40;;
13147;SDS011;6639;50.956;4.242;2024-02-14T14:43:00;5.68;;;3.25;;
13147;SDS011;6639;50.956;4.242;2024-02-14T14:45:27;6.97;;;3.85;;
13147;SDS011;6639;50.956;4.242;2024-02-14T14:47:56;5.15;;;3.42;;
13147;SDS011;6639;50.956;4.242;2024-02-14T14:50:23;5.57;;;2.92;;
13147;SDS011;6639;50.956;4.242;2024-02-14T14:52:50;7.07;;;3.35;;
13147;SDS011;6639;50.956;4.242;2024-02-14T14:55:17;4.30;;;3.47;;
13147;SDS011;6639;50.956;4.242;2024-02-14T14:57:44;3.58;;;3.28;;
13147;SDS011;6639;50.956;4.242;2024-02-14T15:00:13;4.10;;;3.55;;
13147;SDS011;6639;50.956;4.242;2024-02-14T15:02:40;5.60;;;3.28;;